sensor_id;sensor_type;location;lat;lon;timestamp;pressure;altitude;pressure_sealevel;temperature;humidity
76337;BME280;65157;50.082;18.178;2023-06-05T00:00:07;99643.00;;;14.35;51.85
76337;BME280;65157;50.082;18.178;2023-06-05T00:02:33;99640.67;;;14.32;51.85
76337;BME280;65157;50.082;18.178;2023-06-05T00:05:00;99640.41;;;14.30;51.47
76337;BME280;65157;50.082;18.178;2023-06-05T00:07:27;99647.23;;;14.29;51.44
76337;BME280;65157;50.082;18.178;2023-06-05T00:09:53;99646.60;;;14.27;51.66
76337;BME280;65157;50.082;18.178;2023-06-05T00:12:20;99645.70;;;14.24;51.83
76337;BME280;65157;50.082;18.178;2023-06-05T00:14:47;99643.70;;;14.21;52.01
76337;BME280;65157;50.082;18.178;2023-06-05T00:17:13;99644.91;;;14.18;52.23
76337;BME280;65157;50.082;18.178;2023-06-05T00:19:40;99643.41;;;14.16;52.24
76337;BME280;65157;50.082;18.178;2023-06-05T00:22:06;99640.52;;;14.14;52.17
76337;BME280;65157;50.082;18.178;2023-06-05T00:24:33;99642.27;;;14.11;52.12
76337;BME280;65157;50.082;18.178;2023-06-05T00:27:00;99639.84;;;14.10;51.97
76337;BME280;65157;50.082;18.178;2023-06-05T00:29:27;99636.61;;;14.07;52.24
76337;BME280;65157;50.082;18.178;2023-06-05T00:31:53;99637.59;;;14.05;52.17
76337;BME280;65157;50.082;18.178;2023-06-05T00:34:20;99634.59;;;14.01;52.35
76337;BME280;65157;50.082;18.178;2023-06-05T00:36:46;99636.45;;;13.99;52.46
76337;BME280;65157;50.082;18.178;2023-06-05T00:39:13;99636.40;;;13.97;52.52
76337;BME280;65157;50.082;18.178;2023-06-05T00:41:40;99636.88;;;13.95;52.73
76337;BME280;65157;50.082;18.178;2023-06-05T00:44:06;99630.84;;;13.88;52.74
76337;BME280;65157;50.082;18.178;2023-06-05T00:46:33;99632.95;;;13.88;52.65
76337;BME280;65157;50.082;18.178;2023-06-05T00:49:00;99633.44;;;13.85;52.81
76337;BME280;65157;50.082;18.178;2023-06-05T00:51:27;99631.95;;;13.83;52.96
76337;BME280;65157;50.082;18.178;2023-06-05T00:53:54;99622.23;;;13.75;52.99
76337;BME280;65157;50.082;18.178;2023-06-05T00:56:20;99633.53;;;13.76;53.03
76337;BME280;65157;50.082;18.178;2023-06-05T00:58:47;99631.35;;;13.74;53.06
76337;BME280;65157;50.082;18.178;2023-06-05T01:01:15;99629.71;;;13.71;52.95
76337;BME280;65157;50.082;18.178;2023-06-05T01:03:42;99630.48;;;13.66;52.94
76337;BME280;65157;50.082;18.178;2023-06-05T01:06:08;99637.67;;;13.68;52.96
76337;BME280;65157;50.082;18.178;2023-06-05T01:08:36;99642.09;;;13.65;53.11
76337;BME280;65157;50.082;18.178;2023-06-05T01:11:04;99637.69;;;13.57;53.09
76337;BME280;65157;50.082;18.178;2023-06-05T01:13:32;99643.80;;;13.54;53.24
76337;BME280;65157;50.082;18.178;2023-06-05T01:16:01;99650.02;;;13.44;53.55
76337;BME280;65157;50.082;18.178;2023-06-05T01:18:29;99653.00;;;13.37;53.90
76337;BME280;65157;50.082;18.178;2023-06-05T01:21:00;99645.66;;;13.31;54.17
76337;BME280;65157;50.082;18.178;2023-06-05T01:23:27;99648.37;;;13.26;54.34
76337;BME280;65157;50.082;18.178;2023-06-05T01:25:56;99636.39;;;13.13;54.08
76337;BME280;65157;50.082;18.178;2023-06-05T01:28:28;99640.94;;;13.11;54.27
76337;BME280;65157;50.082;18.178;2023-06-05T01:31:22;99646.77;;;13.11;54.19
76337;BME280;65157;50.082;18.178;2023-06-05T01:34:01;99646.30;;;13.05;54.39
76337;BME280;65157;50.082;18.178;2023-06-05T01:36:29;99643.70;;;12.96;54.27
76337;BME280;65157;50.082;18.178;2023-06-05T01:38:56;99652.05;;;12.96;54.64
76337;BME280;65157;50.082;18.178;2023-06-05T01:41:25;99646.22;;;12.87;54.62
76337;BME280;65157;50.082;18.178;2023-06-05T01:43:53;99653.44;;;12.84;55.13
76337;BME280;65157;50.082;18.178;2023-06-05T01:46:21;99653.14;;;12.80;54.93
76337;BME280;65157;50.082;18.178;2023-06-05T01:48:48;99650.76;;;12.78;55.01
76337;BME280;65157;50.082;18.178;2023-06-05T01:51:15;99650.67;;;12.75;55.17
76337;BME280;65157;50.082;18.178;2023-06-05T01:53:42;99648.94;;;12.70;55.37
76337;BME280;65157;50.082;18.178;2023-06-05T01:56:09;99643.73;;;12.64;55.46
76337;BME280;65157;50.082;18.178;2023-06-05T01:58:36;99638.27;;;12.60;55.40
76337;BME280;65157;50.082;18.178;2023-06-05T02:01:02;99641.05;;;12.57;55.44
76337;BME280;65157;50.082;18.178;2023-06-05T02:03:30;99641.67;;;12.55;55.54
76337;BME280;65157;50.082;18.178;2023-06-05T02:05:56;99636.89;;;12.50;56.25
76337;BME280;65157;50.082;18.178;2023-06-05T02:08:23;99639.11;;;12.48;56.65
76337;BME280;65157;50.082;18.178;2023-06-05T02:10:50;99637.61;;;12.42;56.90
76337;BME280;65157;50.082;18.178;2023-06-05T02:13:16;99637.06;;;12.39;56.96
76337;BME280;65157;50.082;18.178;2023-06-05T02:15:45;99637.73;;;12.35;57.14
76337;BME280;65157;50.082;18.178;2023-06-05T02:18:12;99642.28;;;12.33;57.27
76337;BME280;65157;50.082;18.178;2023-06-05T02:20:40;99635.30;;;12.30;57.49
76337;BME280;65157;50.082;18.178;2023-06-05T02:23:07;99636.80;;;12.28;57.07
76337;BME280;65157;50.082;18.178;2023-06-05T02:25:34;99645.91;;;12.26;57.04
76337;BME280;65157;50.082;18.178;2023-06-05T02:28:01;99649.88;;;12.25;57.73
76337;BME280;65157;50.082;18.178;2023-06-05T02:30:27;99651.34;;;12.24;57.92
76337;BME280;65157;50.082;18.178;2023-06-05T02:32:54;99653.37;;;12.22;57.55
76337;BME280;65157;50.082;18.178;2023-06-05T02:35:21;99660.05;;;12.19;58.10
76337;BME280;65157;50.082;18.178;2023-06-05T02:37:47;99665.84;;;12.04;59.02
76337;BME280;65157;50.082;18.178;2023-06-05T02:40:14;99663.07;;;11.89;58.80
76337;BME280;65157;50.082;18.178;2023-06-05T02:42:41;99667.27;;;11.81;59.19
76337;BME280;65157;50.082;18.178;2023-06-05T02:45:08;99664.41;;;11.73;60.26
76337;BME280;65157;50.082;18.178;2023-06-05T02:47:35;99665.33;;;11.67;60.88
76337;BME280;65157;50.082;18.178;2023-06-05T02:50:02;99665.57;;;11.61;60.74
76337;BME280;65157;50.082;18.178;2023-06-05T02:52:29;99666.98;;;11.57;61.09
76337;BME280;65157;50.082;18.178;2023-06-05T02:54:56;99661.82;;;11.49;60.71
76337;BME280;65157;50.082;18.178;2023-06-05T02:57:22;99666.70;;;11.51;60.96
76337;BME280;65157;50.082;18.178;2023-06-05T02:59:49;99666.48;;;11.47;61.54
76337;BME280;65157;50.082;18.178;2023-06-05T03:02:16;99670.70;;;11.44;61.92
76337;BME280;65157;50.082;18.178;2023-06-05T03:04:42;99667.89;;;11.39;62.57
76337;BME280;65157;50.082;18.178;2023-06-05T03:07:09;99667.15;;;11.30;63.28
76337;BME280;65157;50.082;18.178;2023-06-05T03:09:36;99665.92;;;11.21;63.75
76337;BME280;65157;50.082;18.178;2023-06-05T03:12:03;99658.75;;;11.14;63.67
76337;BME280;65157;50.082;18.178;2023-06-05T03:14:29;99663.07;;;11.17;64.20
76337;BME280;65157;50.082;18.178;2023-06-05T03:16:56;99661.81;;;11.13;64.69
76337;BME280;65157;50.082;18.178;2023-06-05T03:19:23;99663.41;;;11.17;64.98
76337;BME280;65157;50.082;18.178;2023-06-05T03:21:49;99652.91;;;11.15;64.94
76337;BME280;65157;50.082;18.178;2023-06-05T03:24:16;99663.61;;;11.21;65.41
76337;BME280;65157;50.082;18.178;2023-06-05T03:26:43;99658.23;;;11.23;65.91
76337;BME280;65157;50.082;18.178;2023-06-05T03:29:10;99662.70;;;11.26;65.02
76337;BME280;65157;50.082;18.178;2023-06-05T03:31:37;99661.68;;;11.29;64.79
76337;BME280;65157;50.082;18.178;2023-06-05T03:34:04;99659.80;;;11.32;65.39
76337;BME280;65157;50.082;18.178;2023-06-05T03:36:31;99660.10;;;11.34;64.84
76337;BME280;65157;50.082;18.178;2023-06-05T03:38:58;99659.30;;;11.37;64.36
76337;BME280;65157;50.082;18.178;2023-06-05T03:41:24;99658.95;;;11.41;63.60
76337;BME280;65157;50.082;18.178;2023-06-05T03:43:51;99660.04;;;11.45;63.71
76337;BME280;65157;50.082;18.178;2023-06-05T03:46:18;99661.30;;;11.49;64.27
76337;BME280;65157;50.082;18.178;2023-06-05T03:48:46;99652.17;;;11.47;64.67
76337;BME280;65157;50.082;18.178;2023-06-05T03:51:13;99660.70;;;11.55;64.86
76337;BME280;65157;50.082;18.178;2023-06-05T03:53:39;99655.27;;;11.58;65.08
76337;BME280;65157;50.082;18.178;2023-06-05T03:56:06;99657.80;;;11.61;65.24
76337;BME280;65157;50.082;18.178;2023-06-05T03:58:33;99657.80;;;11.65;65.09
76337;BME280;65157;50.082;18.178;2023-06-05T04:01:00;99659.50;;;11.72;65.07
76337;BME280;65157;50.082;18.178;2023-06-05T04:03:26;99659.74;;;11.79;64.72
76337;BME280;65157;50.082;18.178;2023-06-05T04:05:53;99658.24;;;11.85;64.53
76337;BME280;65157;50.082;18.178;2023-06-05T04:08:20;99658.65;;;11.93;64.20
76337;BME280;65157;50.082;18.178;2023-06-05T04:10:46;99658.13;;;12.02;63.65
76337;BME280;65157;50.082;18.178;2023-06-05T04:13:13;99658.86;;;12.09;63.31
76337;BME280;65157;50.082;18.178;2023-06-05T04:15:40;99660.11;;;12.17;63.27
76337;BME280;65157;50.082;18.178;2023-06-05T04:18:06;99667.38;;;12.25;63.58
76337;BME280;65157;50.082;18.178;2023-06-05T04:20:33;99668.45;;;12.33;63.42
76337;BME280;65157;50.082;18.178;2023-06-05T04:23:00;99665.97;;;12.41;62.74
76337;BME280;65157;50.082;18.178;2023-06-05T04:25:27;99662.61;;;12.50;62.00
76337;BME280;65157;50.082;18.178;2023-06-05T04:27:54;99663.35;;;12.57;62.14
76337;BME280;65157;50.082;18.178;2023-06-05T04:30:20;99656.38;;;12.63;62.04
76337;BME280;65157;50.082;18.178;2023-06-05T04:32:47;99663.82;;;12.74;61.59
76337;BME280;65157;50.082;18.178;2023-06-05T04:35:14;99662.58;;;12.82;61.09
76337;BME280;65157;50.082;18.178;2023-06-05T04:37:40;99663.05;;;12.92;60.85
76337;BME280;65157;50.082;18.178;2023-06-05T04:40:09;99663.87;;;13.01;60.57
76337;BME280;65157;50.082;18.178;2023-06-05T04:42:36;99661.10;;;13.11;60.03
76337;BME280;65157;50.082;18.178;2023-06-05T04:45:05;99657.83;;;13.21;59.81
76337;BME280;65157;50.082;18.178;2023-06-05T04:47:33;99655.52;;;13.32;59.76
76337;BME280;65157;50.082;18.178;2023-06-05T04:50:01;99651.45;;;13.43;59.64
76337;BME280;65157;50.082;18.178;2023-06-05T04:52:28;99655.15;;;13.55;59.83
76337;BME280;65157;50.082;18.178;2023-06-05T04:54:55;99654.00;;;13.68;59.51
76337;BME280;65157;50.082;18.178;2023-06-05T04:57:21;99647.98;;;13.82;59.17
76337;BME280;65157;50.082;18.178;2023-06-05T04:59:48;99637.04;;;13.91;58.42
76337;BME280;65157;50.082;18.178;2023-06-05T05:02:17;99644.98;;;14.06;58.37
76337;BME280;65157;50.082;18.178;2023-06-05T05:04:44;99648.03;;;14.20;58.68
76337;BME280;65157;50.082;18.178;2023-06-05T05:07:10;99643.70;;;14.32;58.11
76337;BME280;65157;50.082;18.178;2023-06-05T05:09:37;99645.35;;;14.48;58.29
76337;BME280;65157;50.082;18.178;2023-06-05T05:12:04;99641.33;;;14.64;58.13
76337;BME280;65157;50.082;18.178;2023-06-05T05:14:30;99643.75;;;14.82;57.31
76337;BME280;65157;50.082;18.178;2023-06-05T05:16:57;99643.39;;;14.98;56.83
76337;BME280;65157;50.082;18.178;2023-06-05T05:19:24;99646.85;;;15.16;56.55
76337;BME280;65157;50.082;18.178;2023-06-05T05:21:50;99652.11;;;15.34;55.84
76337;BME280;65157;50.082;18.178;2023-06-05T05:24:17;99649.39;;;15.51;55.14
76337;BME280;65157;50.082;18.178;2023-06-05T05:26:44;99651.16;;;15.70;55.42
76337;BME280;65157;50.082;18.178;2023-06-05T05:29:11;99641.46;;;15.90;55.16
76337;BME280;65157;50.082;18.178;2023-06-05T05:31:38;99639.21;;;16.13;55.08
76337;BME280;65157;50.082;18.178;2023-06-05T05:34:04;99627.13;;;16.31;54.74
76337;BME280;65157;50.082;18.178;2023-06-05T05:36:31;99638.79;;;16.54;54.24
76337;BME280;65157;50.082;18.178;2023-06-05T05:38:58;99641.98;;;16.74;54.09
76337;BME280;65157;50.082;18.178;2023-06-05T05:41:25;99643.73;;;16.92;52.66
76337;BME280;65157;50.082;18.178;2023-06-05T05:43:52;99640.80;;;17.08;52.96
76337;BME280;65157;50.082;18.178;2023-06-05T05:46:18;99637.58;;;17.28;52.22
76337;BME280;65157;50.082;18.178;2023-06-05T05:48:45;99632.69;;;17.42;51.33
76337;BME280;65157;50.082;18.178;2023-06-05T05:51:12;99638.65;;;17.64;50.68
76337;BME280;65157;50.082;18.178;2023-06-05T05:53:38;99635.78;;;17.80;50.61
76337;BME280;65157;50.082;18.178;2023-06-05T05:56:05;99636.89;;;17.99;50.33
76337;BME280;65157;50.082;18.178;2023-06-05T05:58:32;99639.98;;;18.19;49.80
76337;BME280;65157;50.082;18.178;2023-06-05T06:00:59;99635.81;;;18.33;49.03
76337;BME280;65157;50.082;18.178;2023-06-05T06:03:26;99641.18;;;18.49;48.62
76337;BME280;65157;50.082;18.178;2023-06-05T06:05:53;99642.96;;;18.65;48.41
76337;BME280;65157;50.082;18.178;2023-06-05T06:08:20;99645.52;;;18.77;48.49
76337;BME280;65157;50.082;18.178;2023-06-05T06:10:47;99641.80;;;18.71;48.19
76337;BME280;65157;50.082;18.178;2023-06-05T06:13:15;99640.22;;;18.73;48.96
76337;BME280;65157;50.082;18.178;2023-06-05T06:15:42;99647.95;;;18.95;48.64
76337;BME280;65157;50.082;18.178;2023-06-05T06:18:09;99649.61;;;19.15;48.04
76337;BME280;65157;50.082;18.178;2023-06-05T06:20:35;99649.42;;;19.38;49.00
76337;BME280;65157;50.082;18.178;2023-06-05T06:23:05;99642.39;;;19.56;47.75
76337;BME280;65157;50.082;18.178;2023-06-05T06:25:32;99654.02;;;19.63;48.06
76337;BME280;65157;50.082;18.178;2023-06-05T06:28:01;99653.41;;;19.71;48.36
76337;BME280;65157;50.082;18.178;2023-06-05T06:30:28;99647.14;;;19.86;48.37
76337;BME280;65157;50.082;18.178;2023-06-05T06:32:56;99637.07;;;19.98;48.78
76337;BME280;65157;50.082;18.178;2023-06-05T06:35:24;99640.66;;;20.15;48.24
76337;BME280;65157;50.082;18.178;2023-06-05T06:37:55;99627.02;;;20.22;48.57
76337;BME280;65157;50.082;18.178;2023-06-05T06:40:22;99633.48;;;20.48;47.90
76337;BME280;65157;50.082;18.178;2023-06-05T06:42:49;99628.94;;;20.63;48.14
76337;BME280;65157;50.082;18.178;2023-06-05T06:45:16;99629.15;;;20.80;47.48
76337;BME280;65157;50.082;18.178;2023-06-05T06:47:43;99628.73;;;20.93;46.66
76337;BME280;65157;50.082;18.178;2023-06-05T06:50:10;99626.23;;;21.11;47.17
76337;BME280;65157;50.082;18.178;2023-06-05T06:52:36;99623.42;;;21.26;46.85
76337;BME280;65157;50.082;18.178;2023-06-05T06:55:03;99612.88;;;21.34;46.82
76337;BME280;65157;50.082;18.178;2023-06-05T06:57:30;99624.58;;;21.56;46.18
76337;BME280;65157;50.082;18.178;2023-06-05T06:59:56;99624.70;;;21.70;46.21
76337;BME280;65157;50.082;18.178;2023-06-05T07:02:24;99626.23;;;21.82;46.19
76337;BME280;65157;50.082;18.178;2023-06-05T07:04:51;99625.87;;;21.95;45.40
76337;BME280;65157;50.082;18.178;2023-06-05T07:07:18;99626.48;;;22.13;45.84
76337;BME280;65157;50.082;18.178;2023-06-05T07:09:45;99619.94;;;22.35;45.84
76337;BME280;65157;50.082;18.178;2023-06-05T07:12:15;99618.95;;;22.55;45.35
76337;BME280;65157;50.082;18.178;2023-06-05T07:14:42;99618.47;;;22.73;45.39
76337;BME280;65157;50.082;18.178;2023-06-05T07:17:11;99620.93;;;22.90;45.39
76337;BME280;65157;50.082;18.178;2023-06-05T07:19:39;99619.86;;;23.05;44.64
76337;BME280;65157;50.082;18.178;2023-06-05T07:22:06;99621.77;;;23.16;44.58
76337;BME280;65157;50.082;18.178;2023-06-05T07:24:34;99619.08;;;23.26;43.98
76337;BME280;65157;50.082;18.178;2023-06-05T07:27:02;99627.65;;;23.47;44.71
76337;BME280;65157;50.082;18.178;2023-06-05T07:29:30;99613.99;;;23.56;43.77
76337;BME280;65157;50.082;18.178;2023-06-05T07:31:58;99619.80;;;23.74;43.34
76337;BME280;65157;50.082;18.178;2023-06-05T07:34:25;99618.27;;;23.90;43.59
76337;BME280;65157;50.082;18.178;2023-06-05T07:36:53;99617.85;;;24.09;42.88
76337;BME280;65157;50.082;18.178;2023-06-05T07:39:20;99616.09;;;24.18;42.79
76337;BME280;65157;50.082;18.178;2023-06-05T07:41:47;99611.22;;;24.30;42.33
76337;BME280;65157;50.082;18.178;2023-06-05T07:44:15;99612.02;;;24.42;41.54
76337;BME280;65157;50.082;18.178;2023-06-05T07:46:43;99614.75;;;24.46;41.65
76337;BME280;65157;50.082;18.178;2023-06-05T07:49:10;99606.70;;;24.53;41.53
76337;BME280;65157;50.082;18.178;2023-06-05T07:51:37;99606.87;;;24.68;41.14
76337;BME280;65157;50.082;18.178;2023-06-05T07:54:09;99607.39;;;24.80;41.51
76337;BME280;65157;50.082;18.178;2023-06-05T07:56:37;99602.79;;;24.94;42.11
76337;BME280;65157;50.082;18.178;2023-06-05T07:59:05;99604.27;;;25.14;41.65
76337;BME280;65157;50.082;18.178;2023-06-05T08:01:33;99601.16;;;25.29;41.65
76337;BME280;65157;50.082;18.178;2023-06-05T08:04:00;99599.40;;;25.51;40.91
76337;BME280;65157;50.082;18.178;2023-06-05T08:06:27;99586.04;;;25.69;40.39
76337;BME280;65157;50.082;18.178;2023-06-05T08:08:53;99591.05;;;25.86;39.41
76337;BME280;65157;50.082;18.178;2023-06-05T08:11:20;99590.02;;;25.99;39.16
76337;BME280;65157;50.082;18.178;2023-06-05T08:13:47;99587.02;;;26.06;38.31
76337;BME280;65157;50.082;18.178;2023-06-05T08:16:13;99581.96;;;26.14;38.23
76337;BME280;65157;50.082;18.178;2023-06-05T08:18:40;99584.92;;;26.26;38.50
76337;BME280;65157;50.082;18.178;2023-06-05T08:21:07;99581.99;;;26.34;38.09
76337;BME280;65157;50.082;18.178;2023-06-05T08:23:34;99580.16;;;26.45;37.82
76337;BME280;65157;50.082;18.178;2023-06-05T08:26:01;99579.15;;;26.60;38.16
76337;BME280;65157;50.082;18.178;2023-06-05T08:28:28;99579.23;;;26.74;37.19
76337;BME280;65157;50.082;18.178;2023-06-05T08:30:55;99573.73;;;26.80;37.63
76337;BME280;65157;50.082;18.178;2023-06-05T08:33:21;99572.88;;;26.87;37.29
76337;BME280;65157;50.082;18.178;2023-06-05T08:35:48;99573.58;;;26.96;37.02
76337;BME280;65157;50.082;18.178;2023-06-05T08:38:15;99581.22;;;27.08;36.94
76337;BME280;65157;50.082;18.178;2023-06-05T08:40:42;99582.64;;;27.18;36.27
76337;BME280;65157;50.082;18.178;2023-06-05T08:43:10;99582.08;;;27.21;35.70
76337;BME280;65157;50.082;18.178;2023-06-05T08:45:37;99582.27;;;27.31;35.81
76337;BME280;65157;50.082;18.178;2023-06-05T08:48:04;99580.14;;;27.34;34.05
76337;BME280;65157;50.082;18.178;2023-06-05T08:50:32;99576.27;;;27.28;33.07
76337;BME280;65157;50.082;18.178;2023-06-05T08:53:00;99587.48;;;27.18;31.70
76337;BME280;65157;50.082;18.178;2023-06-05T08:55:28;99581.06;;;26.88;31.81
76337;BME280;65157;50.082;18.178;2023-06-05T08:57:55;99585.27;;;26.72;32.15
76337;BME280;65157;50.082;18.178;2023-06-05T09:00:22;99587.08;;;26.65;31.81
76337;BME280;65157;50.082;18.178;2023-06-05T09:02:49;99580.89;;;26.55;32.82
76337;BME280;65157;50.082;18.178;2023-06-05T09:05:16;99580.75;;;26.60;33.30
76337;BME280;65157;50.082;18.178;2023-06-05T09:07:43;99580.62;;;26.61;32.56
76337;BME280;65157;50.082;18.178;2023-06-05T09:15:30;99576.08;;;26.40;32.02
76337;BME280;65157;50.082;18.178;2023-06-05T09:20:30;99578.49;;;26.19;31.57
76337;BME280;65157;50.082;18.178;2023-06-05T09:22:57;99573.48;;;26.20;31.45
76337;BME280;65157;50.082;18.178;2023-06-05T09:25:23;99566.17;;;26.25;31.95
76337;BME280;65157;50.082;18.178;2023-06-05T09:28:06;99569.02;;;26.40;31.47
76337;BME280;65157;50.082;18.178;2023-06-05T09:30:33;99565.02;;;26.49;31.56
76337;BME280;65157;50.082;18.178;2023-06-05T09:33:09;99561.16;;;26.60;31.77
76337;BME280;65157;50.082;18.178;2023-06-05T09:35:36;99560.31;;;26.65;31.62
76337;BME280;65157;50.082;18.178;2023-06-05T09:38:03;99565.67;;;26.64;32.28
76337;BME280;65157;50.082;18.178;2023-06-05T09:40:37;99561.02;;;26.63;31.96
76337;BME280;65157;50.082;18.178;2023-06-05T09:43:14;99563.45;;;26.71;33.25
76337;BME280;65157;50.082;18.178;2023-06-05T09:45:42;99557.98;;;26.85;31.59
76337;BME280;65157;50.082;18.178;2023-06-05T09:48:15;99555.48;;;26.93;31.28
76337;BME280;65157;50.082;18.178;2023-06-05T09:50:42;99562.25;;;27.12;31.87
76337;BME280;65157;50.082;18.178;2023-06-05T09:53:09;99555.96;;;27.26;30.89
76337;BME280;65157;50.082;18.178;2023-06-05T09:55:36;99551.36;;;27.37;30.76
76337;BME280;65157;50.082;18.178;2023-06-05T09:58:04;99548.83;;;27.42;29.85
76337;BME280;65157;50.082;18.178;2023-06-05T10:00:32;99545.23;;;27.44;29.88
76337;BME280;65157;50.082;18.178;2023-06-05T10:02:59;99540.29;;;27.41;30.91
76337;BME280;65157;50.082;18.178;2023-06-05T10:05:28;99539.98;;;27.38;30.54
76337;BME280;65157;50.082;18.178;2023-06-05T10:07:56;99543.15;;;27.27;31.63
76337;BME280;65157;50.082;18.178;2023-06-05T10:10:23;99533.34;;;27.14;30.84
76337;BME280;65157;50.082;18.178;2023-06-05T10:12:50;99540.36;;;27.18;31.55
76337;BME280;65157;50.082;18.178;2023-06-05T10:15:17;99542.16;;;27.27;30.83
76337;BME280;65157;50.082;18.178;2023-06-05T10:17:47;99532.91;;;27.42;31.85
76337;BME280;65157;50.082;18.178;2023-06-05T10:20:15;99534.34;;;27.61;30.66
76337;BME280;65157;50.082;18.178;2023-06-05T10:22:43;99534.73;;;27.69;29.95
76337;BME280;65157;50.082;18.178;2023-06-05T10:25:11;99530.63;;;27.68;29.76
76337;BME280;65157;50.082;18.178;2023-06-05T10:27:50;99521.11;;;27.62;29.72
76337;BME280;65157;50.082;18.178;2023-06-05T10:38:34;99515.83;;;28.44;30.24
76337;BME280;65157;50.082;18.178;2023-06-05T10:41:02;99515.33;;;28.56;29.37
76337;BME280;65157;50.082;18.178;2023-06-05T10:43:57;99509.48;;;28.72;29.82
76337;BME280;65157;50.082;18.178;2023-06-05T10:46:30;99517.58;;;28.79;29.46
76337;BME280;65157;50.082;18.178;2023-06-05T10:49:07;99515.44;;;28.80;29.32
76337;BME280;65157;50.082;18.178;2023-06-05T10:51:50;99517.16;;;28.73;28.98
76337;BME280;65157;50.082;18.178;2023-06-05T10:59:20;99513.38;;;28.34;29.47
76337;BME280;65157;50.082;18.178;2023-06-05T11:07:17;99499.64;;;28.54;29.48
76337;BME280;65157;50.082;18.178;2023-06-05T11:15:03;99505.02;;;28.13;30.18
76337;BME280;65157;50.082;18.178;2023-06-05T11:17:32;99500.44;;;28.24;29.59
76337;BME280;65157;50.082;18.178;2023-06-05T11:20:01;99493.56;;;28.34;29.81
76337;BME280;65157;50.082;18.178;2023-06-05T11:22:27;99494.70;;;28.41;30.09
76337;BME280;65157;50.082;18.178;2023-06-05T11:27:49;99494.83;;;28.59;29.76
76337;BME280;65157;50.082;18.178;2023-06-05T11:30:21;99495.65;;;28.47;29.40
76337;BME280;65157;50.082;18.178;2023-06-05T11:32:48;99494.02;;;28.28;30.26
76337;BME280;65157;50.082;18.178;2023-06-05T11:35:15;99492.48;;;28.20;30.71
76337;BME280;65157;50.082;18.178;2023-06-05T11:37:42;99493.91;;;28.13;30.41
76337;BME280;65157;50.082;18.178;2023-06-05T11:40:10;99487.54;;;28.05;31.27
76337;BME280;65157;50.082;18.178;2023-06-05T11:42:38;99492.08;;;28.01;31.07
76337;BME280;65157;50.082;18.178;2023-06-05T11:45:14;99486.40;;;28.04;30.82
76337;BME280;65157;50.082;18.178;2023-06-05T11:47:41;99488.39;;;28.15;31.25
76337;BME280;65157;50.082;18.178;2023-06-05T11:50:12;99483.61;;;28.30;30.79
76337;BME280;65157;50.082;18.178;2023-06-05T11:52:40;99489.14;;;28.41;30.67
76337;BME280;65157;50.082;18.178;2023-06-05T11:55:11;99486.27;;;28.45;30.34
76337;BME280;65157;50.082;18.178;2023-06-05T11:57:42;99484.23;;;28.50;30.74
76337;BME280;65157;50.082;18.178;2023-06-05T12:00:10;99476.02;;;28.41;29.82
76337;BME280;65157;50.082;18.178;2023-06-05T12:02:38;99481.30;;;28.25;29.88
76337;BME280;65157;50.082;18.178;2023-06-05T12:05:13;99482.15;;;28.19;31.00
76337;BME280;65157;50.082;18.178;2023-06-05T12:07:40;99477.02;;;28.34;30.76
76337;BME280;65157;50.082;18.178;2023-06-05T12:10:08;99471.51;;;28.47;30.85
76337;BME280;65157;50.082;18.178;2023-06-05T12:12:49;99472.59;;;28.45;30.92
76337;BME280;65157;50.082;18.178;2023-06-05T12:15:17;99466.39;;;28.41;31.35
76337;BME280;65157;50.082;18.178;2023-06-05T12:17:51;99464.16;;;28.43;30.60
76337;BME280;65157;50.082;18.178;2023-06-05T12:20:19;99461.58;;;28.37;30.67
76337;BME280;65157;50.082;18.178;2023-06-05T12:22:47;99464.35;;;28.29;31.37
76337;BME280;65157;50.082;18.178;2023-06-05T12:25:17;99467.21;;;28.23;31.57
76337;BME280;65157;50.082;18.178;2023-06-05T12:27:45;99471.81;;;28.09;31.10
76337;BME280;65157;50.082;18.178;2023-06-05T12:30:13;99469.22;;;27.90;31.78
76337;BME280;65157;50.082;18.178;2023-06-05T12:32:40;99468.52;;;27.72;31.83
76337;BME280;65157;50.082;18.178;2023-06-05T12:35:20;99471.66;;;27.53;32.40
76337;BME280;65157;50.082;18.178;2023-06-05T12:37:48;99473.13;;;27.38;32.83
76337;BME280;65157;50.082;18.178;2023-06-05T12:40:16;99474.10;;;27.27;32.78
76337;BME280;65157;50.082;18.178;2023-06-05T12:42:42;99467.08;;;27.22;32.89
76337;BME280;65157;50.082;18.178;2023-06-05T12:45:11;99468.10;;;27.16;33.51
76337;BME280;65157;50.082;18.178;2023-06-05T12:47:41;99462.45;;;27.03;33.28
76337;BME280;65157;50.082;18.178;2023-06-05T12:50:08;99467.52;;;26.81;33.14
76337;BME280;65157;50.082;18.178;2023-06-05T12:52:35;99469.60;;;26.56;33.46
76337;BME280;65157;50.082;18.178;2023-06-05T12:55:02;99467.68;;;26.42;34.23
76337;BME280;65157;50.082;18.178;2023-06-05T12:57:29;99466.55;;;26.37;34.41
76337;BME280;65157;50.082;18.178;2023-06-05T12:59:55;99464.73;;;26.33;34.61
76337;BME280;65157;50.082;18.178;2023-06-05T13:02:22;99459.80;;;26.27;35.15
76337;BME280;65157;50.082;18.178;2023-06-05T13:04:49;99455.14;;;26.25;35.50
76337;BME280;65157;50.082;18.178;2023-06-05T13:07:16;99457.08;;;26.24;35.56
76337;BME280;65157;50.082;18.178;2023-06-05T13:09:42;99455.05;;;26.24;35.94
76337;BME280;65157;50.082;18.178;2023-06-05T13:12:09;99453.86;;;26.21;35.62
76337;BME280;65157;50.082;18.178;2023-06-05T13:14:36;99444.64;;;26.05;35.44
76337;BME280;65157;50.082;18.178;2023-06-05T13:17:03;99444.09;;;25.97;36.34
76337;BME280;65157;50.082;18.178;2023-06-05T13:19:30;99448.02;;;25.94;36.10
76337;BME280;65157;50.082;18.178;2023-06-05T13:21:57;99449.64;;;25.87;35.94
76337;BME280;65157;50.082;18.178;2023-06-05T13:24:24;99449.35;;;25.77;36.82
76337;BME280;65157;50.082;18.178;2023-06-05T13:26:50;99442.95;;;25.69;36.83